CDT,Max TemperatureF,Mean TemperatureF,Min TemperatureF,Max Dew PointF,MeanDew PointF,Min DewpointF,Max Humidity, Mean Humidity, Min Humidity, Max Sea Level PressureIn, Mean Sea Level PressureIn, Min Sea Level PressureIn, Max VisibilityMiles, Mean VisibilityMiles, Min VisibilityMiles, Max Wind SpeedMPH, Mean Wind SpeedMPH, Max Gust SpeedMPH,PrecipitationIn, CloudCover, Events, WindDirDegrees
2013-10-1,73,64,55,54,43,30,72,47,20,30.01,29.82,29.57,10,10,10,16,7,24,0.00,0,,261
2013-10-2,75,60,44,55,43,34,100,64,22,30.03,29.95,29.83,10,10,3,22,5,28,0.00,5,Rain-Thunderstorm,107
2013-10-3,57,55,53,57,55,54,100,99,94,29.97,29.89,29.87,10,7,1,14,8,18,0.00,8,Rain,41
2013-10-4,57,55,53,57,55,54,100,97,94,30.00,29.94,29.81,10,9,4,20,12,31,0.00,8,Rain-Thunderstorm,62
2013-10-5,57,50,42,57,49,43,100,91,67,29.84,29.79,29.76,10,9,2,18,10,25,0.00,6,Rain,121
2013-10-6,51,46,42,52,47,43,100,96,82,29.88,29.77,29.71,10,8,1,18,5,24,0.00,6,Rain,321
2013-10-7,66,56,46,46,43,36,93,68,32,29.98,29.93,29.85,10,10,7,7,4,,0.00,1,,281
2013-10-8,78,64,50,46,45,43,82,53,28,29.94,29.84,29.76,10,10,2,14,7,28,0.00,0,,160
2013-10-9,75,65,55,52,48,46,77,57,38,30.02,29.97,29.89,10,10,7,9,5,,0.00,0,,162
2013-10-10,78,66,55,54,49,46,77,56,34,30.02,29.92,29.83,10,10,10,15,7,24,0.00,0,,146
2013-10-11,69,62,53,64,56,48,100,79,60,29.84,29.70,29.56,10,10,2,22,11,34,0.00,3,Rain-Thunderstorm,149
2013-10-12,55,50,46,48,44,37,100,79,62,30.20,29.93,29.71,10,10,5,18,8,26,0.00,6,Rain,255
2013-10-13,59,48,37,41,37,30,100,69,36,30.43,30.36,30.21,10,10,10,8,3,,0.00,1,,280
2013-10-14,51,46,42,48,42,37,100,84,71,30.39,30.20,29.88,10,9,4,22,8,30,0.00,4,Rain,100
2013-10-15,50,47,44,50,48,45,100,100,100,29.90,29.75,29.67,10,6,2,30,17,37,0.00,8,Rain,34
2013-10-16,55,48,39,45,40,32,100,80,44,29.98,29.93,29.87,10,10,10,16,9,22,0.00,3,,308
2013-10-17,51,45,39,48,41,37,100,89,76,29.91,29.84,29.80,10,9,5,16,3,23,0.00,6,Rain,302
2013-10-18,51,43,35,41,35,28,100,78,41,30.00,29.93,29.84,10,10,7,13,8,21,0.00,4,Rain,285
2013-10-19,44,38,32,39,34,30,100,86,57,29.83,29.76,29.70,10,10,7,17,6,25,0.00,4,Rain,266
2013-10-20,44,37,30,39,35,27,100,92,70,29.92,29.74,29.61,10,10,5,16,4,25,0.00,7,Rain,290
2013-10-21,39,34,30,27,24,19,86,64,52,29.97,29.95,29.92,10,10,10,18,11,24,0.00,6,,298
2013-10-22,41,34,28,32,29,25,100,81,65,30.05,30.01,29.96,10,10,10,13,4,16,0.00,6,,319
2013-10-23,39,34,30,32,25,19,100,69,49,30.13,30.05,30.01,10,10,10,18,7,25,0.00,7,Snow,311
2013-10-24,42,35,28,34,30,21,100,78,57,30.32,30.24,30.14,10,10,10,14,6,18,0.00,6,,304
2013-10-25,60,43,26,43,35,25,100,73,45,30.32,30.06,29.79,10,10,10,14,4,25,0.00,1,,234
2013-10-26,48,39,30,37,29,27,93,65,50,30.12,30.04,29.84,10,10,10,20,12,25,0.00,2,,309
2013-10-27,57,44,30,36,31,27,93,67,41,30.16,29.92,29.82,10,10,10,14,4,20,0.00,0,,344
2013-10-28,41,34,28,30,25,19,87,67,42,30.44,30.36,30.17,10,10,10,15,9,20,0.00,0,,42
2013-10-29,35,32,30,36,32,27,100,90,75,30.40,30.24,30.08,10,9,5,10,3,,0.00,8,Rain,67
2013-10-30,46,40,35,46,42,36,100,100,100,30.08,29.89,29.68,5,2,0,7,1,,0.00,8,Fog-Rain,85
2013-10-31,44,40,37,45,40,37,100,99,93,29.68,29.52,29.43,10,5,1,12,4,16,0.00,8,Rain,287